Elmendorf Air Force Base
PAED : now visible

Airfield :











YOU CAN JOIN US ON...

 
LOGIN :

Register | Disclaimer

   EN    FR    IT 

 









Legend :    VFR   Marginal VFR   IFR   Intensive IFR   Very Intensive IFR
Visi :
Ceiling :
>= 8 km
>= 3000ft
5 to 8 km
1000 to 3000 ft
1500m to 5 km
500 to 1000 ft
800 to 1500m
200 to 500 ft
< 800m
< 200 ft
Symbols :   Thunderstorms  Fog  Heavy snow  Heavy precipitations  Wind > 20 kt






- Airport Elevation : 212 ft
- IATA code : EDF


PAED - Elmendorf Air Force Base

CURRENT METAR :
  • 252156Z 03006KT 10SM CLR M18/M23 A2951 RMK AO2A SLP994 T11791229

EXPIRED METARs :
  • 252056Z 07003KT 10SM CLR M21/M25 A2951 RMK AO2A SLP994 T12131248 50000
  • 251956Z 05005KT 10SM SCT080 M24/M27 A2952 RMK AO2A SLP998 T12391272

TAF TAF PAED
Valid from the 25 at 19:00 until the 27 at 01:00 UTC


251900Z 2519/2701 VRB06KT 9999 SCT023 QNH2932INS TXM18/2600Z TNM28/2610Z



MET'MAP, your aeronautical weather chart ! - Copyright ORBIFLY December 2007 - Disclaimer

ORBIFLY MET'MAP TEAM :

Programming & Development : Alexandra Zaïnal
Concept & original design : Baudouin d'Aumeries
Assistance for programming : Marc-Olivier Méhu
Technical & hardware support : Manuel Goepfert

Contact : metmap@orbifly.com




SOURCES & CREDITS :

   NOAA       Earth
Advisory